Altenburg, Missouri
Current Conditions -  °F | °C
As of 8:52 AM on Sunday 23 Nov 2014 (Local Time) from KMDH Reporting Station
Overcast Overcast  
Wind Chill: 57°   Ceiling: 1900
Heat Index: 57°   Visibility: 10mi
Dew Point: 48°   Wind: 12mph
Humidity: 72%   Direction: 150°SSE
Pressure: 29.73"   Gusts: NA
Location:  37.63°N, 89.59°W
Report Text: KMDH 231452Z AUTO 15010KT 10SM OVC019 14/09 A2973 RMK AO2 RAB14E23 SLP067 P0000 60000 T01390089 58023
Loading
Personal Weather Stations






























Interactive Weather Map New forecast layout! Learn more

10-Day Weather Forecast

Advertisements
Track Severe Weather on mobile